< < Back
Terminal Aerodrome Forecast


Current Version              Previous Versions:   1  2  3  4  5  6  7  8  9  

Terminal Aerodrome Forecast

073
FTUS42 KGSP 071126
TAFAND
TAF
KAND 071126Z 0712/0812 35006KT P6SM BKN250
     FM071700 32010G18KT P6SM FEW250
     FM072300 28006KT P6SM SKC
     FM080400 25004KT P6SM SCT250=

Latest METAR

731
SAUS70 KWBC 081400 RRG
MTRAND
METAR KAND 081356Z AUTO 21005KT 10SM CLR 04/M02 A2981 RMK AO2 SLP093
T00441022


USA.gov is the U.S. government's official web portal to all federal, state and local government web resources and services.